Time;durP1;ratioP1;P1;durP2;ratioP2;P2;SDS_P1;SDS_P2;PMS_P1;PMS_P2;Temp;Humidity;BMP_temperature;BMP_pressure;BME280_temperature;BME280_humidity;BME280_pressure;Samples;Min_cycle;Max_cycle;Signal;HPM_P1;HPM_P2
2022/10/24 04:05:53;;;;;;;4.03;1.47;;;17.50;99.90;;;;;;4995057;28;20487;-70
2022/10/24 04:08:19;;;;;;;2.80;1.63;;;17.50;99.90;;;;;;4997740;28;20402;-71
2022/10/24 04:10:45;;;;;;;1.93;1.53;;;17.40;99.90;;;;;;4997665;28;20383;-70
2022/10/24 04:13:11;;;;;;;3.90;1.20;;;17.50;99.90;;;;;;4997210;28;20767;-70
2022/10/24 04:15:37;;;;;;;2.27;1.70;;;17.50;99.90;;;;;;4978072;28;20470;-70
2022/10/24 04:18:03;;;;;;;3.70;1.37;;;17.40;99.90;;;;;;4978206;28;20442;-71
2022/10/24 04:20:29;;;;;;;1.80;1.60;;;17.50;99.90;;;;;;4978165;28;20178;-70
2022/10/24 04:22:54;;;;;;;3.33;2.60;;;17.50;99.90;;;;;;4977808;28;20567;-71
2022/10/24 04:25:20;;;;;;;5.70;1.67;;;17.50;99.90;;;;;;4978001;28;20693;-71
2022/10/24 04:27:47;;;;;;;3.10;1.20;;;17.60;99.90;;;;;;4977996;28;20544;-70
2022/10/24 04:30:14;;;;;;;2.60;0.93;;;17.60;99.90;;;;;;4977974;28;20179;-71
2022/10/24 04:32:39;;;;;;;1.97;1.37;;;17.60;99.90;;;;;;4977345;28;20427;-70
2022/10/24 04:35:05;;;;;;;1.60;1.10;;;17.60;99.90;;;;;;4976573;28;20449;-70
2022/10/24 04:37:31;;;;;;;3.03;1.70;;;17.60;99.90;;;;;;4976552;28;20168;-69
2022/10/24 04:39:57;;;;;;;1.70;1.60;;;17.70;99.90;;;;;;4977001;28;20457;-70
2022/10/24 04:42:24;;;;;;;2.43;1.50;;;17.70;99.90;;;;;;4977144;28;20418;-74
2022/10/24 04:44:50;;;;;;;3.83;1.20;;;17.70;99.90;;;;;;4976979;28;20282;-70
2022/10/24 04:47:16;;;;;;;4.83;1.80;;;17.80;99.90;;;;;;4976705;28;20513;-70
2022/10/24 04:49:42;;;;;;;5.70;1.33;;;17.80;99.90;;;;;;4977352;28;20243;-70
2022/10/24 04:52:07;;;;;;;1.93;1.17;;;17.80;99.90;;;;;;4977315;28;20454;-70
2022/10/24 04:54:33;;;;;;;3.03;2.00;;;17.70;99.90;;;;;;4976985;28;20198;-69
2022/10/24 04:56:58;;;;;;;3.83;1.10;;;17.70;99.90;;;;;;4959919;28;20258;-70
2022/10/24 04:59:24;;;;;;;1.37;1.17;;;17.70;99.90;;;;;;4969108;28;20657;-70
2022/10/24 05:01:49;;;;;;;2.13;1.50;;;17.70;99.90;;;;;;4957450;29;20713;-70
2022/10/24 05:04:15;;;;;;;1.73;1.30;;;17.80;99.90;;;;;;4957333;29;20205;-70
2022/10/24 05:06:41;;;;;;;2.50;2.30;;;17.80;99.90;;;;;;4957575;29;20178;-70
2022/10/24 05:09:06;;;;;;;3.60;1.60;;;17.80;99.90;;;;;;4957735;28;20684;-69
2022/10/24 05:11:32;;;;;;;1.53;1.07;;;17.80;99.90;;;;;;4941952;29;20193;-70
2022/10/24 05:13:58;;;;;;;2.70;1.60;;;17.80;99.90;;;;;;4973293;28;20228;-69
2022/10/24 05:16:24;;;;;;;2.63;1.30;;;17.80;99.90;;;;;;4977028;28;20430;-69
2022/10/24 05:18:49;;;;;;;1.23;1.20;;;17.80;99.90;;;;;;4977006;28;20619;-70
2022/10/24 05:21:15;;;;;;;1.47;1.30;;;17.80;99.90;;;;;;4959461;28;20183;-70
2022/10/24 05:23:41;;;;;;;2.10;1.47;;;17.80;99.90;;;;;;4976312;28;20559;-70
2022/10/24 05:26:07;;;;;;;3.03;1.53;;;17.80;99.90;;;;;;4976340;28;20438;-70
2022/10/24 05:28:33;;;;;;;2.47;1.30;;;17.80;99.90;;;;;;4976974;28;20168;-70
2022/10/24 05:30:59;;;;;;;3.57;1.93;;;17.80;99.90;;;;;;4976592;28;20796;-70
2022/10/24 05:33:25;;;;;;;2.80;2.27;;;17.90;99.90;;;;;;4976149;28;20548;-71
2022/10/24 05:35:51;;;;;;;3.87;1.13;;;17.90;99.90;;;;;;4976618;28;20457;-68
2022/10/24 05:38:17;;;;;;;7.53;1.33;;;17.90;99.90;;;;;;4976650;28;20178;-67
2022/10/24 05:40:46;;;;;;;1.30;1.20;;;17.90;99.90;;;;;;4968899;28;20904;-70
2022/10/24 05:43:12;;;;;;;5.10;1.17;;;17.90;99.90;;;;;;4957065;29;20165;-70
2022/10/24 05:45:37;;;;;;;3.17;1.17;;;17.80;99.90;;;;;;4957279;29;20472;-71
2022/10/24 05:48:03;;;;;;;5.43;1.60;;;17.80;99.90;;;;;;4957149;29;20807;-71
2022/10/24 05:50:29;;;;;;;0.93;0.90;;;17.80;99.90;;;;;;4957181;29;20186;-71
2022/10/24 05:52:55;;;;;;;2.90;1.73;;;17.80;99.90;;;;;;4956658;29;20452;-69
2022/10/24 05:55:21;;;;;;;5.67;2.10;;;17.80;99.90;;;;;;4962890;28;20450;-70
2022/10/24 05:57:46;;;;;;;4.67;1.50;;;17.80;99.90;;;;;;4958833;28;20535;-70
2022/10/24 06:00:15;;;;;;;4.13;1.50;;;17.80;99.90;;;;;;4976391;28;20684;-70
2022/10/24 06:02:41;;;;;;;4.57;2.40;;;17.90;99.90;;;;;;4975836;28;20183;-70
2022/10/24 06:05:08;;;;;;;2.40;1.30;;;17.90;99.90;;;;;;4975890;28;20459;-70
2022/10/24 06:07:34;;;;;;;3.60;1.40;;;17.90;99.90;;;;;;4976325;28;20420;-69
2022/10/24 06:10:01;;;;;;;6.27;1.53;;;17.90;99.90;;;;;;4966497;28;20436;-70
2022/10/24 06:12:26;;;;;;;7.60;3.43;;;18.00;99.90;;;;;;4956288;29;20531;-69
2022/10/24 06:14:59;;;;;;;3.93;1.60;;;17.90;99.90;;;;;;4956656;29;20525;-70
2022/10/24 06:17:25;;;;;;;3.40;2.30;;;17.90;99.90;;;;;;4956665;29;20629;-68
2022/10/24 06:19:50;;;;;;;5.57;2.83;;;17.90;99.90;;;;;;4956385;29;20405;-70
2022/10/24 06:22:17;;;;;;;7.53;3.50;;;17.60;99.90;;;;;;4955319;28;20824;-68
2022/10/24 06:24:43;;;;;;;13.70;6.43;;;17.30;99.90;;;;;;4938754;29;20217;-70
2022/10/24 06:27:08;;;;;;;6.20;2.23;;;17.00;99.90;;;;;;4939110;29;20943;-69
2022/10/24 06:29:34;;;;;;;3.50;1.90;;;16.70;99.90;;;;;;4956674;29;20673;-66
2022/10/24 06:32:00;;;;;;;3.23;2.40;;;16.50;99.90;;;;;;4956392;29;20295;-69
2022/10/24 06:34:26;;;;;;;4.20;2.23;;;16.30;99.90;;;;;;4967830;28;20712;-69
2022/10/24 06:36:52;;;;;;;1.47;1.37;;;16.20;99.90;;;;;;4968856;28;20787;-70
2022/10/24 06:39:17;;;;;;;1.67;1.43;;;16.10;99.90;;;;;;4962322;28;20511;-65
2022/10/24 06:41:43;;;;;;;5.67;3.43;;;16.00;99.90;;;;;;4972182;28;20178;-67
2022/10/24 06:44:09;;;;;;;4.60;2.40;;;16.00;99.90;;;;;;4974169;28;20196;-66
2022/10/24 06:46:34;;;;;;;1.40;1.30;;;15.90;99.90;;;;;;4974335;28;20708;-67
2022/10/24 06:49:00;;;;;;;1.77;1.67;;;15.90;99.90;;;;;;4957937;28;20517;-65
2022/10/24 06:51:26;;;;;;;4.43;2.10;;;15.90;99.90;;;;;;4967237;28;20522;-67
2022/10/24 06:53:51;;;;;;;4.10;1.73;;;15.90;99.90;;;;;;4969069;28;20199;-66
2022/10/24 06:56:17;;;;;;;2.40;2.20;;;15.90;99.90;;;;;;4974930;28;20172;-66
2022/10/24 06:58:43;;;;;;;7.30;3.87;;;15.90;99.90;;;;;;4974317;28;20208;-66
2022/10/24 07:01:11;;;;;;;4.03;3.23;;;15.90;99.90;;;;;;4974457;28;20514;-66
2022/10/24 07:03:37;;;;;;;4.47;2.23;;;15.90;99.90;;;;;;4963990;28;20443;-66
2022/10/24 07:06:15;;;;;;;4.53;2.37;;;15.90;99.90;;;;;;4974284;28;20436;-68
2022/10/24 07:08:41;;;;;;;3.07;1.80;;;15.90;99.90;;;;;;4974809;28;20776;-67
2022/10/24 07:11:06;;;;;;;3.20;2.07;;;15.90;99.90;;;;;;4974094;28;20424;-67
2022/10/24 07:13:32;;;;;;;4.20;1.50;;;15.80;99.90;;;;;;4965554;28;20463;-68
2022/10/24 07:15:58;;;;;;;2.73;1.40;;;15.80;99.90;;;;;;4962479;28;20543;-65
2022/10/24 07:18:23;;;;;;;1.43;1.30;;;15.80;99.90;;;;;;4967879;28;20181;-69
2022/10/24 07:20:49;;;;;;;1.83;1.63;;;15.80;99.90;;;;;;4974586;28;20172;-66
2022/10/24 07:23:15;;;;;;;1.53;1.43;;;15.80;99.90;;;;;;4972825;28;20246;-68
2022/10/24 07:25:41;;;;;;;2.87;1.50;;;15.80;99.90;;;;;;4974476;28;20247;-68
2022/10/24 07:28:09;;;;;;;5.53;1.90;;;15.80;99.90;;;;;;4973686;28;20191;-68
2022/10/24 07:30:36;;;;;;;1.57;1.47;;;15.80;99.90;;;;;;4974550;28;20430;-65
2022/10/24 07:33:01;;;;;;;2.43;2.10;;;15.80;99.90;;;;;;4973112;28;20967;-68
2022/10/24 07:35:27;;;;;;;1.93;1.83;;;15.80;99.90;;;;;;4973552;28;20432;-67
2022/10/24 07:37:53;;;;;;;1.50;1.40;;;15.90;99.90;;;;;;4973771;28;20885;-67
2022/10/24 07:40:19;;;;;;;2.30;2.07;;;15.90;99.90;;;;;;4973676;28;20196;-66
2022/10/24 07:42:45;;;;;;;2.13;1.53;;;15.90;99.90;;;;;;4973256;28;20544;-67
2022/10/24 07:45:11;;;;;;;2.33;2.00;;;16.00;99.90;;;;;;4973497;28;20467;-66
2022/10/24 07:47:37;;;;;;;2.43;2.27;;;16.10;99.90;;;;;;4973997;28;20417;-68
2022/10/24 07:50:04;;;;;;;5.83;2.13;;;16.10;99.90;;;;;;4974138;28;20725;-68
2022/10/24 07:52:30;;;;;;;3.07;2.37;;;16.20;99.90;;;;;;4972347;28;20194;-65
2022/10/24 07:54:56;;;;;;;5.40;1.83;;;16.20;99.90;;;;;;4967586;28;20789;-69
2022/10/24 07:57:22;;;;;;;3.20;1.67;;;16.30;99.90;;;;;;4972475;28;20671;-65
2022/10/24 07:59:48;;;;;;;4.17;1.63;;;16.30;99.90;;;;;;4968002;28;20454;-65
2022/10/24 08:02:15;;;;;;;4.20;1.57;;;16.30;99.90;;;;;;4972952;28;20436;-67
2022/10/24 08:04:40;;;;;;;2.87;1.40;;;16.30;99.90;;;;;;4972648;28;20464;-66
2022/10/24 08:07:11;;;;;;;2.90;1.83;;;16.30;99.90;;;;;;4974063;28;20417;-67
2022/10/24 08:09:42;;;;;;;2.07;1.83;;;16.30;99.90;;;;;;4973785;28;20207;-65
2022/10/24 08:12:08;;;;;;;2.60;1.80;;;16.10;99.90;;;;;;4974339;28;20452;-66
2022/10/24 08:14:35;;;;;;;1.53;1.43;;;16.00;99.90;;;;;;4970919;28;20525;-69
2022/10/24 08:17:01;;;;;;;4.87;1.90;;;15.90;99.90;;;;;;4985907;28;20780;-65
2022/10/24 08:19:26;;;;;;;1.37;1.27;;;15.90;99.90;;;;;;4980266;28;20416;-65
2022/10/24 08:21:52;;;;;;;4.97;2.10;;;15.80;99.90;;;;;;4973579;28;20208;-68
2022/10/24 08:24:17;;;;;;;2.37;1.83;;;15.80;99.90;;;;;;4973225;28;20200;-65
2022/10/24 08:26:43;;;;;;;6.03;1.37;;;15.80;99.90;;;;;;4973726;28;20186;-66
2022/10/24 08:29:10;;;;;;;2.13;1.30;;;15.80;99.90;;;;;;4973057;28;20183;-66
2022/10/24 08:31:36;;;;;;;1.67;1.57;;;15.80;99.90;;;;;;4973552;28;20606;-65
2022/10/24 08:34:04;;;;;;;2.10;1.50;;;15.80;99.90;;;;;;4973102;28;20524;-66
2022/10/24 08:36:35;;;;;;;2.30;1.37;;;15.80;99.90;;;;;;4973285;28;20422;-65
2022/10/24 08:39:01;;;;;;;2.93;0.93;;;15.70;99.90;;;;;;4973650;28;20893;-67
2022/10/24 08:41:31;;;;;;;2.20;1.70;;;15.70;99.90;;;;;;4973344;28;20821;-67
2022/10/24 08:44:00;;;;;;;1.50;1.40;;;15.70;99.90;;;;;;4967164;28;20484;-68
2022/10/24 08:46:37;;;;;;;4.70;1.63;;;15.70;99.90;;;;;;4965943;28;20507;-67
2022/10/24 08:49:28;;;;;;;2.73;1.40;;;15.70;99.90;;;;;;4976180;28;20432;-65
2022/10/24 08:52:02;;;;;;;2.10;1.10;;;15.70;99.90;;;;;;4968881;28;20879;-65
2022/10/24 08:54:35;;;;;;;1.40;1.30;;;15.80;99.90;;;;;;4976257;28;20474;-66
2022/10/24 08:57:01;;;;;;;1.87;1.43;;;15.90;99.90;;;;;;4956375;29;20416;-66
2022/10/24 08:59:29;;;;;;;1.70;1.40;;;16.00;99.90;;;;;;4968835;28;20474;-67
2022/10/24 09:02:03;;;;;;;2.67;2.10;;;16.00;99.90;;;;;;4976810;28;20463;-65
2022/10/24 09:04:37;;;;;;;2.50;1.30;;;16.10;99.90;;;;;;4975417;28;20923;-66
2022/10/24 09:07:03;;;;;;;1.83;1.43;;;16.20;99.90;;;;;;4976675;28;20788;-66
2022/10/24 09:09:44;;;;;;;2.87;2.67;;;16.20;99.90;;;;;;4976152;28;20418;-66
2022/10/24 09:12:12;;;;;;;4.33;1.40;;;16.30;99.90;;;;;;4976577;28;20547;-66
2022/10/24 09:14:41;;;;;;;1.80;1.30;;;16.40;99.90;;;;;;4973129;28;20435;-70
2022/10/24 09:17:30;;;;;;;2.10;1.10;;;16.40;99.90;;;;;;4959784;28;20425;-67
2022/10/24 09:20:16;;;;;;;1.40;1.30;;;16.40;99.90;;;;;;4976064;28;20421;-64
2022/10/24 09:22:42;;;;;;;5.93;1.53;;;16.40;99.90;;;;;;4972190;28;20860;-66
2022/10/24 09:25:13;;;;;;;2.07;1.50;;;16.40;99.90;;;;;;4975675;28;21006;-64
2022/10/24 09:27:40;;;;;;;1.60;1.20;;;16.50;99.90;;;;;;4974576;28;20478;-66
2022/10/24 09:30:10;;;;;;;1.17;1.10;;;16.50;99.90;;;;;;4964325;28;20793;-65
2022/10/24 09:32:36;;;;;;;1.37;1.13;;;16.50;99.90;;;;;;4972831;28;20448;-67
2022/10/24 09:35:07;;;;;;;2.93;1.13;;;16.60;99.90;;;;;;4968862;28;20872;-67
2022/10/24 09:37:41;;;;;;;1.40;1.20;;;16.60;99.90;;;;;;4960469;28;20192;-66
2022/10/24 09:40:16;;;;;;;2.13;1.53;;;16.70;99.90;;;;;;4971028;28;20469;-69
2022/10/24 09:43:04;;;;;;;4.50;2.27;;;16.70;99.90;;;;;;4961070;28;20459;-65
2022/10/24 09:45:44;;;;;;;1.70;1.60;;;16.70;99.90;;;;;;4973899;28;20536;-65
2022/10/24 09:48:27;;;;;;;1.20;1.03;;;16.80;99.90;;;;;;4970422;28;20461;-68
2022/10/24 09:50:54;;;;;;;2.23;1.93;;;16.80;99.90;;;;;;4976571;28;20408;-66
2022/10/24 09:53:30;;;;;;;1.93;1.30;;;16.80;99.90;;;;;;4972455;28;20449;-68
2022/10/24 09:56:09;;;;;;;1.30;1.20;;;16.80;99.90;;;;;;4976056;28;20420;-65
2022/10/24 09:58:35;;;;;;;1.73;1.53;;;16.70;99.90;;;;;;4974919;28;20503;-67
2022/10/24 10:01:18;;;;;;;1.80;1.60;;;16.70;99.90;;;;;;4976308;28;20438;-65
2022/10/24 10:04:01;;;;;;;2.00;1.17;;;16.80;99.90;;;;;;4968365;28;20790;-66
2022/10/24 10:06:27;;;;;;;4.00;1.63;;;16.70;99.90;;;;;;4965290;28;20524;-70
2022/10/24 10:08:55;;;;;;;2.17;1.40;;;16.80;99.90;;;;;;4963517;28;20540;-69
2022/10/24 10:11:25;;;;;;;1.40;1.30;;;16.80;99.90;;;;;;4969112;28;20545;-68
2022/10/24 10:13:53;;;;;;;0.87;0.87;;;16.90;99.90;;;;;;4965383;28;20557;-66
2022/10/24 10:16:32;;;;;;;2.67;1.50;;;16.90;99.90;;;;;;4974956;28;20536;-67
2022/10/24 10:19:19;;;;;;;1.27;1.17;;;16.90;99.90;;;;;;4965585;28;20430;-69
2022/10/24 10:22:03;;;;;;;2.57;1.43;;;17.10;99.90;;;;;;4954085;28;20449;-69
2022/10/24 10:24:34;;;;;;;3.43;1.37;;;17.10;99.90;;;;;;4966476;28;20973;-70
2022/10/24 10:27:00;;;;;;;2.10;1.00;;;17.20;99.90;;;;;;4967714;28;20467;-68
2022/10/24 10:29:26;;;;;;;3.00;1.40;;;17.20;99.90;;;;;;4956401;29;20822;-69
2022/10/24 10:32:31;;;;;;;2.67;1.33;;;17.30;99.90;;;;;;4960787;28;22309;-69
2022/10/24 10:35:16;;;;;;;1.40;1.27;;;17.40;99.90;;;;;;4974520;28;20815;-68
2022/10/24 10:37:52;;;;;;;1.80;1.50;;;17.40;99.90;;;;;;4970234;28;20561;-68
2022/10/24 10:40:38;;;;;;;4.30;1.20;;;17.50;99.90;;;;;;4961974;28;20828;-68
2022/10/24 10:43:13;;;;;;;1.60;1.47;;;17.50;99.90;;;;;;4957508;28;20916;-69
2022/10/24 10:45:45;;;;;;;1.37;1.27;;;17.60;99.90;;;;;;4969971;28;20432;-67
2022/10/24 10:48:31;;;;;;;1.10;1.00;;;17.60;99.90;;;;;;4988382;28;20454;-68
2022/10/24 10:51:06;;;;;;;2.50;1.30;;;17.60;99.90;;;;;;4994504;28;20422;-68
2022/10/24 10:54:19;;;;;;;1.47;1.37;;;17.70;99.90;;;;;;4992460;28;21003;-67
2022/10/24 10:57:05;;;;;;;3.50;1.53;;;17.80;99.90;;;;;;4915568;29;20853;-67
2022/10/24 10:59:46;;;;;;;3.40;1.43;;;17.80;99.90;;;;;;4985414;28;20468;-67
2022/10/24 11:02:38;;;;;;;1.80;1.67;;;17.80;99.90;;;;;;4993207;28;20432;-68
2022/10/24 11:05:15;;;;;;;3.40;1.27;;;17.80;99.90;;;;;;4975860;28;21189;-69
2022/10/24 11:08:06;;;;;;;1.30;1.20;;;17.90;99.90;;;;;;4992178;28;20433;-68
2022/10/24 11:10:43;;;;;;;3.93;1.30;;;17.90;99.90;;;;;;4993037;28;20468;-68
2022/10/24 11:13:17;;;;;;;0.83;0.83;;;18.00;99.90;;;;;;4974402;28;20467;-68
2022/10/24 11:15:47;;;;;;;2.63;1.00;;;18.00;99.90;;;;;;4975465;28;20411;-68
2022/10/24 11:18:22;;;;;;;1.10;1.00;;;18.00;99.90;;;;;;4992658;28;20433;-67
2022/10/24 11:20:52;;;;;;;0.80;0.80;;;18.00;99.90;;;;;;4984957;28;20477;-66
2022/10/24 11:23:40;;;;;;;1.00;0.90;;;18.00;99.90;;;;;;4977202;28;20402;-66
2022/10/24 11:26:19;;;;;;;4.47;1.40;;;18.00;99.90;;;;;;4975806;28;20449;-68
2022/10/24 11:29:16;;;;;;;1.40;1.30;;;18.00;99.90;;;;;;4975926;28;20490;-67
2022/10/24 11:31:48;;;;;;;1.03;0.90;;;18.00;99.90;;;;;;4974583;28;20791;-68
2022/10/24 11:34:26;;;;;;;2.87;1.10;;;18.00;99.90;;;;;;4978669;28;20446;-68
2022/10/24 11:37:11;;;;;;;1.37;1.10;;;18.00;99.90;;;;;;4994149;28;20418;-68
2022/10/24 11:39:49;;;;;;;1.93;1.47;;;17.90;99.90;;;;;;4985962;28;20514;-67
2022/10/24 11:42:20;;;;;;;1.03;0.93;;;18.00;99.90;;;;;;4983683;28;20503;-67
2022/10/24 11:44:54;;;;;;;0.90;0.90;;;17.90;99.90;;;;;;4988293;28;20443;-68
2022/10/24 11:47:25;;;;;;;1.07;1.07;;;17.90;99.90;;;;;;4976833;28;20432;-68
2022/10/24 11:50:04;;;;;;;2.40;1.20;;;18.00;99.90;;;;;;4975518;28;20436;-68
2022/10/24 11:52:54;;;;;;;1.10;1.10;;;18.00;99.90;;;;;;4974391;28;20522;-67
2022/10/24 11:55:27;;;;;;;1.20;0.90;;;18.10;99.90;;;;;;4983732;28;20541;-67
2022/10/24 11:57:58;;;;;;;1.30;1.00;;;18.10;99.90;;;;;;4992112;28;20506;-68
2022/10/24 12:00:29;;;;;;;1.10;1.10;;;18.20;99.90;;;;;;4993759;28;20419;-68
2022/10/24 12:03:16;;;;;;;1.00;1.00;;;18.20;99.90;;;;;;4983048;28;20513;-69
2022/10/24 12:06:03;;;;;;;1.00;1.00;;;18.20;99.90;;;;;;4974242;28;20427;-68
2022/10/24 12:08:40;;;;;;;1.10;1.00;;;18.20;99.90;;;;;;4974381;28;20800;-69
2022/10/24 12:11:27;;;;;;;1.17;1.07;;;18.20;99.90;;;;;;4974514;28;20485;-68
2022/10/24 12:14:08;;;;;;;1.17;0.80;;;18.30;99.90;;;;;;4990837;28;20449;-67
2022/10/24 12:16:37;;;;;;;0.93;0.93;;;18.30;99.90;;;;;;4993880;28;20509;-68
2022/10/24 12:19:22;;;;;;;0.50;0.50;;;18.30;99.90;;;;;;4993318;28;20472;-67
2022/10/24 12:21:57;;;;;;;1.33;1.10;;;18.40;99.90;;;;;;4997684;28;20437;-67
2022/10/24 12:24:43;;;;;;;2.63;1.30;;;18.40;99.90;;;;;;4986777;28;20840;-67
2022/10/24 12:27:34;;;;;;;1.83;0.87;;;18.40;99.90;;;;;;5007840;28;20480;-70
2022/10/24 12:30:08;;;;;;;1.97;1.33;;;18.40;99.90;;;;;;4987748;28;20418;-70
2022/10/24 12:32:43;;;;;;;1.00;1.00;;;18.30;99.90;;;;;;4996960;28;20476;-69
2022/10/24 12:35:29;;;;;;;2.13;0.90;;;18.20;99.90;;;;;;4979348;28;20442;-69
2022/10/24 12:37:55;;;;;;;1.00;1.00;;;18.30;99.90;;;;;;5003519;28;20516;-70
2022/10/24 12:40:51;;;;;;;1.43;0.70;;;18.20;99.90;;;;;;4990605;28;20427;-69
2022/10/24 12:43:35;;;;;;;0.80;0.80;;;18.20;99.90;;;;;;4979956;28;20434;-68
2022/10/24 12:46:24;;;;;;;1.43;0.90;;;18.20;99.90;;;;;;4997013;28;20410;-69
2022/10/24 12:48:55;;;;;;;0.80;0.80;;;18.20;99.90;;;;;;4958163;28;20514;-69
2022/10/24 12:51:33;;;;;;;0.80;0.50;;;18.20;99.90;;;;;;4996163;28;20414;-68
2022/10/24 12:54:10;;;;;;;3.43;0.80;;;18.20;99.90;;;;;;4978592;28;20477;-68
2022/10/24 12:56:57;;;;;;;0.87;0.73;;;18.20;99.90;;;;;;4977559;28;20486;-69
2022/10/24 12:59:29;;;;;;;0.90;0.90;;;18.20;99.90;;;;;;4976549;28;20960;-68
2022/10/24 13:02:27;;;;;;;1.20;0.80;;;18.20;99.90;;;;;;4975991;28;20419;-68
2022/10/24 13:05:27;;;;;;;2.30;1.00;;;18.20;99.90;;;;;;4959389;28;20648;-68
2022/10/24 13:08:49;;;;;;;0.80;0.80;;;18.20;99.90;;;;;;4977540;28;20531;-68
2022/10/24 13:11:56;;;;;;;2.03;1.93;;;18.20;99.90;;;;;;4917970;29;20418;-69
2022/10/24 13:14:37;;;;;;;0.80;0.80;;;18.30;99.90;;;;;;4917608;29;20441;-68
2022/10/24 13:17:40;;;;;;;0.80;0.80;;;18.30;99.90;;;;;;4969370;28;20430;-68
2022/10/24 13:20:45;;;;;;;0.67;0.67;;;18.40;99.90;;;;;;4978744;28;20490;-67
2022/10/24 13:23:19;;;;;;;0.90;0.73;;;18.50;99.90;;;;;;4976219;28;20439;-68
2022/10/24 13:25:46;;;;;;;3.20;0.80;;;18.50;99.90;;;;;;4977323;28;20392;-69
2022/10/24 13:28:39;;;;;;;0.80;0.80;;;18.50;99.90;;;;;;4976892;28;20435;-69
2022/10/24 13:31:05;;;;;;;0.97;0.90;;;18.50;99.90;;;;;;4953112;28;20451;-69
2022/10/24 13:36:15;;;;;;;1.30;1.20;;;18.50;99.90;;;;;;4976781;28;20195;-69
2022/10/24 13:38:45;;;;;;;0.67;0.67;;;18.60;99.90;;;;;;4976769;28;20540;-68
2022/10/24 13:41:19;;;;;;;1.10;1.00;;;18.50;99.90;;;;;;4976624;28;20414;-68
2022/10/24 13:43:48;;;;;;;1.20;0.97;;;18.50;99.90;;;;;;4976363;28;20426;-68
2022/10/24 13:46:30;;;;;;;1.00;1.00;;;18.50;99.90;;;;;;4976456;28;20466;-68
2022/10/24 13:48:58;;;;;;;2.00;1.80;;;18.50;99.90;;;;;;4976613;28;20757;-69
2022/10/24 13:51:33;;;;;;;2.70;1.63;;;18.50;99.90;;;;;;4977025;28;20422;-68
2022/10/24 13:54:21;;;;;;;1.57;1.47;;;18.50;99.90;;;;;;4975862;28;21065;-68
2022/10/24 13:56:48;;;;;;;1.23;1.13;;;18.40;99.90;;;;;;4975789;28;20420;-68
2022/10/24 13:59:36;;;;;;;0.97;0.70;;;18.40;99.90;;;;;;4976223;28;20418;-67
2022/10/24 14:02:20;;;;;;;3.23;1.40;;;18.40;99.90;;;;;;4976460;28;20420;-68
2022/10/24 14:04:47;;;;;;;1.27;0.80;;;18.40;99.90;;;;;;4975699;28;20429;-69
2022/10/24 14:07:19;;;;;;;1.10;1.00;;;18.30;99.90;;;;;;4976293;28;20794;-68
2022/10/24 14:09:52;;;;;;;1.00;1.00;;;18.30;99.90;;;;;;4976076;28;20793;-69
2022/10/24 14:12:19;;;;;;;2.97;1.23;;;18.20;99.90;;;;;;4975911;28;20459;-68
2022/10/24 14:14:49;;;;;;;1.03;0.80;;;18.20;99.90;;;;;;4975784;28;20434;-68
2022/10/24 14:17:28;;;;;;;0.80;0.80;;;18.20;99.90;;;;;;4976223;28;20412;-68
2022/10/24 14:19:55;;;;;;;1.13;1.03;;;18.20;99.90;;;;;;4975959;28;20419;-68
2022/10/24 14:22:28;;;;;;;1.80;1.10;;;18.10;99.90;;;;;;4983145;28;20423;-69
2022/10/24 14:24:54;;;;;;;1.47;1.37;;;18.00;99.90;;;;;;4995288;28;20514;-69
2022/10/24 14:27:20;;;;;;;1.23;1.00;;;18.00;99.90;;;;;;4995578;28;20398;-69
2022/10/24 14:30:01;;;;;;;2.33;1.07;;;18.00;99.90;;;;;;4995056;28;20472;-69
2022/10/24 14:32:29;;;;;;;3.10;1.27;;;18.00;99.90;;;;;;4994885;28;20282;-67
2022/10/24 14:34:57;;;;;;;1.40;1.40;;;18.00;99.90;;;;;;4994663;28;20434;-69
2022/10/24 14:37:30;;;;;;;1.27;1.17;;;17.90;99.90;;;;;;4995039;28;20399;-70
2022/10/24 14:39:57;;;;;;;1.17;1.10;;;17.90;99.90;;;;;;4995203;28;20431;-70
2022/10/24 14:42:23;;;;;;;1.70;1.60;;;17.90;99.90;;;;;;4994017;28;20418;-69
2022/10/24 14:44:50;;;;;;;1.20;1.10;;;17.90;99.90;;;;;;4994740;28;20427;-67
2022/10/24 14:47:25;;;;;;;4.00;1.50;;;17.90;99.90;;;;;;4994772;28;20417;-65
2022/10/24 14:49:51;;;;;;;2.50;2.10;;;17.90;99.90;;;;;;4994765;28;20453;-66
2022/10/24 14:52:17;;;;;;;5.53;2.37;;;17.90;99.90;;;;;;4977190;28;21173;-66
2022/10/24 14:54:53;;;;;;;2.47;1.70;;;17.90;99.90;;;;;;4994340;28;20529;-67
2022/10/24 14:57:21;;;;;;;1.10;1.10;;;18.00;99.90;;;;;;4994414;28;20171;-68
2022/10/24 14:59:49;;;;;;;2.90;1.30;;;18.10;99.90;;;;;;4994546;28;20434;-67
2022/10/24 15:02:31;;;;;;;1.50;1.20;;;18.20;99.90;;;;;;4994477;28;20530;-66
2022/10/24 15:05:18;;;;;;;1.47;1.37;;;18.30;99.90;;;;;;4994247;28;20818;-67
2022/10/24 15:07:44;;;;;;;1.20;0.93;;;18.40;99.90;;;;;;4994504;28;20519;-66
2022/10/24 15:10:09;;;;;;;1.50;0.90;;;18.50;99.90;;;;;;4977119;28;20925;-67
2022/10/24 15:12:41;;;;;;;1.73;1.17;;;18.50;99.90;;;;;;4993904;28;20461;-70
2022/10/24 15:15:22;;;;;;;2.57;1.23;;;18.40;99.90;;;;;;4994322;28;20286;-69
2022/10/24 15:17:48;;;;;;;2.30;1.30;;;18.40;99.90;;;;;;4994027;28;20469;-69
2022/10/24 15:20:17;;;;;;;1.20;0.90;;;18.20;99.90;;;;;;4994175;28;20411;-71
2022/10/24 15:22:53;;;;;;;2.37;2.23;;;18.10;99.90;;;;;;4993886;28;20536;-69
2022/10/24 15:25:23;;;;;;;2.60;1.27;;;18.10;99.90;;;;;;4994260;28;20794;-69
2022/10/24 15:27:50;;;;;;;2.50;1.47;;;17.90;99.90;;;;;;4993287;28;20422;-70
2022/10/24 15:30:21;;;;;;;7.77;1.30;;;17.80;99.90;;;;;;4989430;28;20515;-69
2022/10/24 15:32:49;;;;;;;1.17;1.17;;;17.80;99.90;;;;;;4976192;28;20472;-70
2022/10/24 15:35:16;;;;;;;0.90;0.90;;;17.70;99.90;;;;;;4982775;28;20445;-70
2022/10/24 15:37:59;;;;;;;1.20;1.10;;;17.60;99.90;;;;;;4994017;28;20404;-70
2022/10/24 15:40:29;;;;;;;1.87;1.77;;;17.60;99.90;;;;;;4994262;28;20438;-69
2022/10/24 15:42:55;;;;;;;1.40;1.30;;;17.50;99.90;;;;;;4986051;28;20434;-69
2022/10/24 15:45:20;;;;;;;0.80;0.80;;;17.40;99.90;;;;;;4974469;28;20500;-70
2022/10/24 15:47:46;;;;;;;0.90;0.90;;;17.40;99.90;;;;;;4974622;28;20410;-69
2022/10/24 15:50:16;;;;;;;1.33;1.10;;;17.30;99.90;;;;;;4974492;28;20181;-69
2022/10/24 15:52:46;;;;;;;0.97;0.97;;;17.30;99.90;;;;;;4974064;28;20241;-69
2022/10/24 15:55:18;;;;;;;1.40;1.20;;;17.20;99.90;;;;;;4993439;28;20436;-67
2022/10/24 15:57:44;;;;;;;1.10;0.90;;;17.10;99.90;;;;;;4993806;28;20773;-67
2022/10/24 16:00:10;;;;;;;1.00;1.00;;;17.10;99.90;;;;;;4988849;28;20417;-64
2022/10/24 16:02:36;;;;;;;1.10;1.00;;;17.00;99.90;;;;;;5004789;28;20499;-64
2022/10/24 16:05:01;;;;;;;1.57;1.27;;;16.90;99.90;;;;;;4995546;28;20546;-65
2022/10/24 16:07:27;;;;;;;1.20;1.10;;;16.90;99.90;;;;;;4991796;28;20181;-67
2022/10/24 16:09:53;;;;;;;1.67;1.57;;;16.90;99.90;;;;;;4984831;28;20188;-68
2022/10/24 16:12:19;;;;;;;1.27;0.80;;;16.80;99.90;;;;;;4992142;28;20200;-66
2022/10/24 16:14:44;;;;;;;2.67;1.53;;;16.80;99.90;;;;;;4986299;28;20445;-68
2022/10/24 16:17:10;;;;;;;2.17;1.23;;;16.70;99.90;;;;;;4982926;28;20178;-64
2022/10/24 16:19:35;;;;;;;2.00;1.47;;;16.70;99.90;;;;;;4991357;28;20234;-64
2022/10/24 16:22:01;;;;;;;1.60;1.40;;;16.60;99.90;;;;;;4976803;28;20176;-68
2022/10/24 16:24:27;;;;;;;1.43;1.33;;;16.50;99.90;;;;;;4991730;28;20197;-66
2022/10/24 16:26:53;;;;;;;1.80;1.70;;;16.50;99.90;;;;;;4993613;28;20650;-66
2022/10/24 16:29:18;;;;;;;1.70;1.07;;;16.40;99.90;;;;;;4993270;28;20439;-67
2022/10/24 16:31:45;;;;;;;2.83;1.47;;;16.40;99.90;;;;;;4993490;28;20168;-65
2022/10/24 16:34:11;;;;;;;2.10;1.57;;;16.40;99.90;;;;;;4975324;28;20212;-64
2022/10/24 16:36:39;;;;;;;1.20;1.20;;;16.30;99.90;;;;;;4993381;28;20494;-65
2022/10/24 16:39:06;;;;;;;2.90;2.10;;;16.30;99.90;;;;;;4993422;28;20251;-65
2022/10/24 16:41:31;;;;;;;7.33;1.57;;;16.30;99.90;;;;;;4992887;28;20428;-65
2022/10/24 16:43:57;;;;;;;1.80;1.70;;;16.20;99.90;;;;;;4993023;28;20490;-64
2022/10/24 16:46:24;;;;;;;4.37;1.63;;;16.20;99.90;;;;;;4993400;28;20175;-65
2022/10/24 16:48:50;;;;;;;1.63;1.13;;;16.20;99.90;;;;;;4993142;28;20639;-66
2022/10/24 16:51:23;;;;;;;2.93;1.47;;;16.20;99.90;;;;;;4986793;28;20519;-65
2022/10/24 16:53:52;;;;;;;1.47;1.37;;;16.20;99.90;;;;;;4973412;28;20466;-66
2022/10/24 16:56:18;;;;;;;6.13;1.80;;;16.20;99.90;;;;;;4974098;28;20401;-66
2022/10/24 16:58:43;;;;;;;1.17;1.17;;;16.20;99.90;;;;;;4973759;28;20415;-64
2022/10/24 17:01:12;;;;;;;1.50;1.40;;;16.20;99.90;;;;;;4989178;28;20248;-65
2022/10/24 17:03:39;;;;;;;2.10;1.70;;;16.30;99.90;;;;;;4975000;28;20200;-64
2022/10/24 17:06:05;;;;;;;1.70;1.60;;;16.30;99.90;;;;;;4993641;28;20478;-65
2022/10/24 17:08:31;;;;;;;5.80;4.77;;;16.30;99.90;;;;;;4996749;28;20455;-65
2022/10/24 17:10:57;;;;;;;4.20;2.80;;;16.30;99.90;;;;;;4996643;28;20978;-65
2022/10/24 17:13:23;;;;;;;2.23;1.83;;;16.40;99.90;;;;;;4996074;28;20283;-65
2022/10/24 17:15:49;;;;;;;3.07;2.57;;;16.40;99.90;;;;;;4981560;28;20181;-66
2022/10/24 17:18:18;;;;;;;2.50;1.80;;;16.40;99.90;;;;;;4959933;28;20761;-66